sensor_id;sensor_type;location;lat;lon;timestamp;temperature;humidity
70548;DHT22;58099;43.406;3.698;2022-12-29T00:01:18;12.30;99.90
70548;DHT22;58099;43.406;3.698;2022-12-29T00:03:46;12.40;99.90
70548;DHT22;58099;43.406;3.698;2022-12-29T00:06:12;12.30;99.90
70548;DHT22;58099;43.406;3.698;2022-12-29T00:08:37;12.30;99.90
70548;DHT22;58099;43.406;3.698;2022-12-29T00:11:14;12.30;99.90
70548;DHT22;58099;43.406;3.698;2022-12-29T00:13:40;12.30;99.90
70548;DHT22;58099;43.406;3.698;2022-12-29T00:16:26;12.30;99.90
70548;DHT22;58099;43.406;3.698;2022-12-29T00:18:54;12.30;99.90
70548;DHT22;58099;43.406;3.698;2022-12-29T00:21:21;12.30;99.90
70548;DHT22;58099;43.406;3.698;2022-12-29T00:24:08;12.20;99.90
70548;DHT22;58099;43.406;3.698;2022-12-29T00:27:10;12.20;99.90
70548;DHT22;58099;43.406;3.698;2022-12-29T00:29:55;12.20;99.90
70548;DHT22;58099;43.406;3.698;2022-12-29T00:32:39;12.10;99.90
70548;DHT22;58099;43.406;3.698;2022-12-29T00:35:27;12.10;99.90
70548;DHT22;58099;43.406;3.698;2022-12-29T00:37:55;12.10;99.90
70548;DHT22;58099;43.406;3.698;2022-12-29T00:40:41;12.00;99.90
70548;DHT22;58099;43.406;3.698;2022-12-29T00:43:25;12.00;99.90
70548;DHT22;58099;43.406;3.698;2022-12-29T00:46:10;12.00;99.90
70548;DHT22;58099;43.406;3.698;2022-12-29T00:48:35;12.00;99.90
70548;DHT22;58099;43.406;3.698;2022-12-29T00:51:20;12.10;99.90
70548;DHT22;58099;43.406;3.698;2022-12-29T00:53:45;12.10;99.90
70548;DHT22;58099;43.406;3.698;2022-12-29T00:56:11;12.00;99.90
70548;DHT22;58099;43.406;3.698;2022-12-29T00:58:37;12.00;99.90
70548;DHT22;58099;43.406;3.698;2022-12-29T01:01:04;12.00;99.90
70548;DHT22;58099;43.406;3.698;2022-12-29T01:03:32;12.00;99.90
70548;DHT22;58099;43.406;3.698;2022-12-29T01:06:01;12.00;99.90
70548;DHT22;58099;43.406;3.698;2022-12-29T01:08:30;12.00;99.90
70548;DHT22;58099;43.406;3.698;2022-12-29T01:11:00;11.90;99.90
70548;DHT22;58099;43.406;3.698;2022-12-29T01:13:26;11.90;99.90
70548;DHT22;58099;43.406;3.698;2022-12-29T01:15:52;11.90;99.90
70548;DHT22;58099;43.406;3.698;2022-12-29T01:18:18;11.90;99.90
70548;DHT22;58099;43.406;3.698;2022-12-29T01:20:44;11.90;99.90
70548;DHT22;58099;43.406;3.698;2022-12-29T01:23:10;11.80;99.90
70548;DHT22;58099;43.406;3.698;2022-12-29T01:25:35;11.80;99.90
70548;DHT22;58099;43.406;3.698;2022-12-29T01:28:01;11.90;99.90
70548;DHT22;58099;43.406;3.698;2022-12-29T01:30:27;11.90;99.90
70548;DHT22;58099;43.406;3.698;2022-12-29T01:32:52;11.90;99.90
70548;DHT22;58099;43.406;3.698;2022-12-29T01:35:18;11.90;99.90
70548;DHT22;58099;43.406;3.698;2022-12-29T01:37:44;11.90;99.90
70548;DHT22;58099;43.406;3.698;2022-12-29T01:40:10;11.90;99.90
70548;DHT22;58099;43.406;3.698;2022-12-29T01:42:36;11.90;99.90
70548;DHT22;58099;43.406;3.698;2022-12-29T01:45:20;12.00;99.90
70548;DHT22;58099;43.406;3.698;2022-12-29T01:47:55;12.00;99.90
70548;DHT22;58099;43.406;3.698;2022-12-29T01:50:28;12.00;99.90
70548;DHT22;58099;43.406;3.698;2022-12-29T01:55:40;12.00;99.90
70548;DHT22;58099;43.406;3.698;2022-12-29T01:58:08;12.00;99.90
70548;DHT22;58099;43.406;3.698;2022-12-29T02:00:35;12.00;99.90
70548;DHT22;58099;43.406;3.698;2022-12-29T02:03:01;12.00;99.90
70548;DHT22;58099;43.406;3.698;2022-12-29T02:05:46;12.00;99.90
70548;DHT22;58099;43.406;3.698;2022-12-29T02:08:13;11.90;99.90
70548;DHT22;58099;43.406;3.698;2022-12-29T02:10:40;11.90;99.90
70548;DHT22;58099;43.406;3.698;2022-12-29T02:13:06;11.90;99.90
70548;DHT22;58099;43.406;3.698;2022-12-29T02:36:25;12.00;99.90
70548;DHT22;58099;43.406;3.698;2022-12-29T02:41:39;12.00;99.90
70548;DHT22;58099;43.406;3.698;2022-12-29T02:47:14;12.10;99.90
70548;DHT22;58099;43.406;3.698;2022-12-29T02:50:01;12.00;99.90
70548;DHT22;58099;43.406;3.698;2022-12-29T02:52:42;12.10;99.90
70548;DHT22;58099;43.406;3.698;2022-12-29T02:55:11;12.10;99.90
70548;DHT22;58099;43.406;3.698;2022-12-29T02:57:37;12.10;99.90
70548;DHT22;58099;43.406;3.698;2022-12-29T03:00:16;12.10;99.90
70548;DHT22;58099;43.406;3.698;2022-12-29T03:06:07;12.10;99.90
70548;DHT22;58099;43.406;3.698;2022-12-29T03:08:57;12.10;99.90
70548;DHT22;58099;43.406;3.698;2022-12-29T03:11:29;12.10;99.90
70548;DHT22;58099;43.406;3.698;2022-12-29T03:14:44;12.10;99.90
70548;DHT22;58099;43.406;3.698;2022-12-29T03:20:09;12.20;99.90
70548;DHT22;58099;43.406;3.698;2022-12-29T03:22:41;12.20;99.90
70548;DHT22;58099;43.406;3.698;2022-12-29T03:25:23;12.20;99.90
70548;DHT22;58099;43.406;3.698;2022-12-29T03:27:53;12.20;99.90
70548;DHT22;58099;43.406;3.698;2022-12-29T03:30:21;12.20;99.90
70548;DHT22;58099;43.406;3.698;2022-12-29T03:32:57;12.20;99.90
70548;DHT22;58099;43.406;3.698;2022-12-29T03:35:26;12.30;99.90
70548;DHT22;58099;43.406;3.698;2022-12-29T03:37:58;12.20;99.90
70548;DHT22;58099;43.406;3.698;2022-12-29T03:40:26;12.20;99.90
70548;DHT22;58099;43.406;3.698;2022-12-29T03:42:53;12.20;99.90
70548;DHT22;58099;43.406;3.698;2022-12-29T03:45:19;12.20;99.90
70548;DHT22;58099;43.406;3.698;2022-12-29T03:47:45;12.20;99.90
70548;DHT22;58099;43.406;3.698;2022-12-29T03:50:12;12.20;99.90
70548;DHT22;58099;43.406;3.698;2022-12-29T03:52:38;12.20;99.90
70548;DHT22;58099;43.406;3.698;2022-12-29T03:55:04;12.20;99.90
70548;DHT22;58099;43.406;3.698;2022-12-29T03:57:30;12.10;99.90
70548;DHT22;58099;43.406;3.698;2022-12-29T03:59:56;12.10;99.90
70548;DHT22;58099;43.406;3.698;2022-12-29T04:02:22;12.10;99.90
70548;DHT22;58099;43.406;3.698;2022-12-29T04:04:47;12.10;99.90
70548;DHT22;58099;43.406;3.698;2022-12-29T04:07:13;12.10;99.90
70548;DHT22;58099;43.406;3.698;2022-12-29T04:09:39;12.10;99.90
70548;DHT22;58099;43.406;3.698;2022-12-29T04:12:04;12.10;99.90
70548;DHT22;58099;43.406;3.698;2022-12-29T04:14:30;12.20;99.90
70548;DHT22;58099;43.406;3.698;2022-12-29T04:16:56;12.10;99.90
70548;DHT22;58099;43.406;3.698;2022-12-29T04:19:21;12.10;99.90
70548;DHT22;58099;43.406;3.698;2022-12-29T04:21:47;12.10;99.90
70548;DHT22;58099;43.406;3.698;2022-12-29T04:24:13;12.20;99.90
70548;DHT22;58099;43.406;3.698;2022-12-29T04:26:39;12.20;99.90
70548;DHT22;58099;43.406;3.698;2022-12-29T04:29:04;12.10;99.90
70548;DHT22;58099;43.406;3.698;2022-12-29T04:31:30;12.20;99.90
70548;DHT22;58099;43.406;3.698;2022-12-29T04:33:56;12.20;99.90
70548;DHT22;58099;43.406;3.698;2022-12-29T04:36:23;12.20;99.90
70548;DHT22;58099;43.406;3.698;2022-12-29T04:38:49;12.20;99.90
70548;DHT22;58099;43.406;3.698;2022-12-29T04:41:14;12.20;99.90
70548;DHT22;58099;43.406;3.698;2022-12-29T04:43:40;12.20;99.90
70548;DHT22;58099;43.406;3.698;2022-12-29T04:46:06;12.30;99.90
70548;DHT22;58099;43.406;3.698;2022-12-29T04:48:32;12.30;99.90
70548;DHT22;58099;43.406;3.698;2022-12-29T04:50:57;12.30;99.90
70548;DHT22;58099;43.406;3.698;2022-12-29T04:53:23;12.30;99.90
70548;DHT22;58099;43.406;3.698;2022-12-29T04:55:50;12.30;99.90
70548;DHT22;58099;43.406;3.698;2022-12-29T04:58:16;12.20;99.90
70548;DHT22;58099;43.406;3.698;2022-12-29T05:00:42;12.30;99.90
70548;DHT22;58099;43.406;3.698;2022-12-29T05:03:08;12.30;99.90
70548;DHT22;58099;43.406;3.698;2022-12-29T05:05:33;12.30;99.90
70548;DHT22;58099;43.406;3.698;2022-12-29T05:07:59;12.30;99.90
70548;DHT22;58099;43.406;3.698;2022-12-29T05:10:25;12.30;99.90
70548;DHT22;58099;43.406;3.698;2022-12-29T05:12:51;12.30;99.90
70548;DHT22;58099;43.406;3.698;2022-12-29T05:15:17;12.30;99.90
70548;DHT22;58099;43.406;3.698;2022-12-29T05:17:42;12.30;99.90
70548;DHT22;58099;43.406;3.698;2022-12-29T05:20:09;12.40;99.90
70548;DHT22;58099;43.406;3.698;2022-12-29T05:22:35;12.40;99.90
70548;DHT22;58099;43.406;3.698;2022-12-29T05:25:04;12.30;99.90
70548;DHT22;58099;43.406;3.698;2022-12-29T05:27:30;12.40;99.90
70548;DHT22;58099;43.406;3.698;2022-12-29T05:29:56;12.40;99.90
70548;DHT22;58099;43.406;3.698;2022-12-29T05:32:22;12.40;99.90
70548;DHT22;58099;43.406;3.698;2022-12-29T05:34:52;12.40;99.90
70548;DHT22;58099;43.406;3.698;2022-12-29T05:37:18;12.40;99.90
70548;DHT22;58099;43.406;3.698;2022-12-29T05:39:47;12.40;99.90
70548;DHT22;58099;43.406;3.698;2022-12-29T05:42:13;12.40;99.90
70548;DHT22;58099;43.406;3.698;2022-12-29T05:44:42;12.40;99.90
70548;DHT22;58099;43.406;3.698;2022-12-29T05:47:09;12.40;99.90
70548;DHT22;58099;43.406;3.698;2022-12-29T05:49:35;12.40;99.90
70548;DHT22;58099;43.406;3.698;2022-12-29T05:52:01;12.40;99.90
70548;DHT22;58099;43.406;3.698;2022-12-29T05:54:26;12.50;99.90
70548;DHT22;58099;43.406;3.698;2022-12-29T05:56:52;12.50;99.90
70548;DHT22;58099;43.406;3.698;2022-12-29T05:59:18;12.50;99.90
70548;DHT22;58099;43.406;3.698;2022-12-29T06:01:44;12.50;99.90
70548;DHT22;58099;43.406;3.698;2022-12-29T06:04:10;12.50;99.90
70548;DHT22;58099;43.406;3.698;2022-12-29T06:06:35;12.50;99.90
70548;DHT22;58099;43.406;3.698;2022-12-29T06:09:01;12.50;99.90
70548;DHT22;58099;43.406;3.698;2022-12-29T06:11:27;12.40;99.90
70548;DHT22;58099;43.406;3.698;2022-12-29T06:13:52;12.40;99.90
70548;DHT22;58099;43.406;3.698;2022-12-29T06:16:18;12.40;99.90
70548;DHT22;58099;43.406;3.698;2022-12-29T06:18:44;12.40;99.90
70548;DHT22;58099;43.406;3.698;2022-12-29T06:21:09;12.40;99.90
70548;DHT22;58099;43.406;3.698;2022-12-29T06:23:35;12.40;99.90
70548;DHT22;58099;43.406;3.698;2022-12-29T06:26:01;12.40;99.90
70548;DHT22;58099;43.406;3.698;2022-12-29T06:28:26;12.30;99.90
70548;DHT22;58099;43.406;3.698;2022-12-29T06:30:52;12.30;99.90
70548;DHT22;58099;43.406;3.698;2022-12-29T06:33:18;12.30;99.90
70548;DHT22;58099;43.406;3.698;2022-12-29T06:35:44;12.30;99.90
70548;DHT22;58099;43.406;3.698;2022-12-29T06:38:11;12.30;99.90
70548;DHT22;58099;43.406;3.698;2022-12-29T06:40:37;12.50;99.90
70548;DHT22;58099;43.406;3.698;2022-12-29T06:43:03;12.40;99.90
70548;DHT22;58099;43.406;3.698;2022-12-29T06:45:28;12.40;99.90
70548;DHT22;58099;43.406;3.698;2022-12-29T06:47:54;12.30;99.90
70548;DHT22;58099;43.406;3.698;2022-12-29T06:50:23;12.40;99.90
70548;DHT22;58099;43.406;3.698;2022-12-29T06:52:48;12.40;99.90
70548;DHT22;58099;43.406;3.698;2022-12-29T06:55:14;12.40;99.90
70548;DHT22;58099;43.406;3.698;2022-12-29T06:57:40;12.40;99.90
70548;DHT22;58099;43.406;3.698;2022-12-29T07:00:07;12.40;99.90
70548;DHT22;58099;43.406;3.698;2022-12-29T07:02:33;12.40;99.90
70548;DHT22;58099;43.406;3.698;2022-12-29T07:04:58;12.40;99.90
70548;DHT22;58099;43.406;3.698;2022-12-29T07:07:24;12.40;99.90
70548;DHT22;58099;43.406;3.698;2022-12-29T07:09:50;12.40;99.90
70548;DHT22;58099;43.406;3.698;2022-12-29T07:12:15;12.40;99.90
70548;DHT22;58099;43.406;3.698;2022-12-29T07:14:41;12.40;99.90
70548;DHT22;58099;43.406;3.698;2022-12-29T07:17:07;12.40;99.90
70548;DHT22;58099;43.406;3.698;2022-12-29T07:19:33;12.40;99.90
70548;DHT22;58099;43.406;3.698;2022-12-29T07:21:59;12.40;99.90
70548;DHT22;58099;43.406;3.698;2022-12-29T07:24:25;12.40;99.90
70548;DHT22;58099;43.406;3.698;2022-12-29T07:26:55;12.50;99.90
70548;DHT22;58099;43.406;3.698;2022-12-29T07:29:20;12.50;99.90
70548;DHT22;58099;43.406;3.698;2022-12-29T07:31:46;12.50;99.90
70548;DHT22;58099;43.406;3.698;2022-12-29T07:34:12;12.40;99.90
70548;DHT22;58099;43.406;3.698;2022-12-29T07:36:37;12.40;99.90
70548;DHT22;58099;43.406;3.698;2022-12-29T07:39:03;12.40;99.90
70548;DHT22;58099;43.406;3.698;2022-12-29T07:41:29;12.40;99.90
70548;DHT22;58099;43.406;3.698;2022-12-29T07:43:56;12.60;99.90
70548;DHT22;58099;43.406;3.698;2022-12-29T07:46:21;12.80;99.90
70548;DHT22;58099;43.406;3.698;2022-12-29T07:48:49;12.70;99.90
70548;DHT22;58099;43.406;3.698;2022-12-29T07:51:15;12.90;99.90
70548;DHT22;58099;43.406;3.698;2022-12-29T07:53:40;12.90;99.90
70548;DHT22;58099;43.406;3.698;2022-12-29T07:56:06;13.10;99.90
70548;DHT22;58099;43.406;3.698;2022-12-29T07:58:32;13.20;99.90
70548;DHT22;58099;43.406;3.698;2022-12-29T08:00:58;13.20;99.90
70548;DHT22;58099;43.406;3.698;2022-12-29T08:03:23;13.30;99.90
70548;DHT22;58099;43.406;3.698;2022-12-29T08:05:51;13.30;99.90
70548;DHT22;58099;43.406;3.698;2022-12-29T08:08:17;13.40;99.90
70548;DHT22;58099;43.406;3.698;2022-12-29T08:10:43;13.50;99.90
70548;DHT22;58099;43.406;3.698;2022-12-29T08:13:08;13.60;99.90
70548;DHT22;58099;43.406;3.698;2022-12-29T08:15:34;13.60;99.90
70548;DHT22;58099;43.406;3.698;2022-12-29T08:18:00;13.60;99.90
70548;DHT22;58099;43.406;3.698;2022-12-29T08:20:26;13.80;99.90
70548;DHT22;58099;43.406;3.698;2022-12-29T08:22:53;14.30;99.90
70548;DHT22;58099;43.406;3.698;2022-12-29T08:25:18;14.50;99.90
70548;DHT22;58099;43.406;3.698;2022-12-29T08:27:45;14.70;99.90
70548;DHT22;58099;43.406;3.698;2022-12-29T08:30:11;14.90;99.90
70548;DHT22;58099;43.406;3.698;2022-12-29T08:32:37;15.10;99.90
70548;DHT22;58099;43.406;3.698;2022-12-29T08:35:02;15.20;99.90
70548;DHT22;58099;43.406;3.698;2022-12-29T08:37:28;15.20;99.90
70548;DHT22;58099;43.406;3.698;2022-12-29T08:39:55;15.40;99.90
70548;DHT22;58099;43.406;3.698;2022-12-29T08:42:21;15.30;99.90
70548;DHT22;58099;43.406;3.698;2022-12-29T08:44:46;15.00;99.90
70548;DHT22;58099;43.406;3.698;2022-12-29T08:47:12;14.90;99.90
70548;DHT22;58099;43.406;3.698;2022-12-29T08:49:38;14.90;99.90
70548;DHT22;58099;43.406;3.698;2022-12-29T08:52:04;14.80;99.90
70548;DHT22;58099;43.406;3.698;2022-12-29T08:54:29;14.90;99.90
70548;DHT22;58099;43.406;3.698;2022-12-29T08:56:55;15.00;99.90
70548;DHT22;58099;43.406;3.698;2022-12-29T08:59:21;14.90;99.90
70548;DHT22;58099;43.406;3.698;2022-12-29T09:01:47;15.00;99.90
70548;DHT22;58099;43.406;3.698;2022-12-29T09:04:12;15.30;99.90
70548;DHT22;58099;43.406;3.698;2022-12-29T09:06:38;15.50;99.90
70548;DHT22;58099;43.406;3.698;2022-12-29T09:09:04;15.70;99.90
70548;DHT22;58099;43.406;3.698;2022-12-29T09:11:30;15.90;99.90
70548;DHT22;58099;43.406;3.698;2022-12-29T09:13:56;16.30;99.90
70548;DHT22;58099;43.406;3.698;2022-12-29T09:16:41;16.40;99.90
70548;DHT22;58099;43.406;3.698;2022-12-29T09:19:27;17.00;99.90
70548;DHT22;58099;43.406;3.698;2022-12-29T09:21:53;17.30;99.90
70548;DHT22;58099;43.406;3.698;2022-12-29T09:24:18;17.40;99.90
70548;DHT22;58099;43.406;3.698;2022-12-29T09:26:44;18.00;99.90
70548;DHT22;58099;43.406;3.698;2022-12-29T09:29:09;18.50;99.90
70548;DHT22;58099;43.406;3.698;2022-12-29T09:31:35;18.70;99.90
70548;DHT22;58099;43.406;3.698;2022-12-29T09:34:01;18.50;99.90
70548;DHT22;58099;43.406;3.698;2022-12-29T09:36:27;18.20;99.90
70548;DHT22;58099;43.406;3.698;2022-12-29T09:38:53;17.50;99.90
70548;DHT22;58099;43.406;3.698;2022-12-29T09:41:34;16.90;99.90
70548;DHT22;58099;43.406;3.698;2022-12-29T09:46:46;16.50;99.90
70548;DHT22;58099;43.406;3.698;2022-12-29T09:49:21;16.20;99.90
70548;DHT22;58099;43.406;3.698;2022-12-29T09:51:54;15.90;99.90
70548;DHT22;58099;43.406;3.698;2022-12-29T09:57:17;15.70;99.90
70548;DHT22;58099;43.406;3.698;2022-12-29T09:59:46;16.10;99.90
70548;DHT22;58099;43.406;3.698;2022-12-29T10:02:26;16.70;99.90
70548;DHT22;58099;43.406;3.698;2022-12-29T10:04:54;17.20;99.90
70548;DHT22;58099;43.406;3.698;2022-12-29T10:07:41;17.40;99.90
70548;DHT22;58099;43.406;3.698;2022-12-29T10:10:23;17.20;99.90
70548;DHT22;58099;43.406;3.698;2022-12-29T10:13:28;17.20;99.90
70548;DHT22;58099;43.406;3.698;2022-12-29T10:16:06;17.60;99.90
70548;DHT22;58099;43.406;3.698;2022-12-29T10:21:13;18.30;99.90
70548;DHT22;58099;43.406;3.698;2022-12-29T10:23:47;19.20;99.90
70548;DHT22;58099;43.406;3.698;2022-12-29T10:26:17;19.80;99.90
70548;DHT22;58099;43.406;3.698;2022-12-29T10:29:05;19.90;99.90
70548;DHT22;58099;43.406;3.698;2022-12-29T10:31:45;19.40;99.90
70548;DHT22;58099;43.406;3.698;2022-12-29T10:34:27;19.20;99.90
70548;DHT22;58099;43.406;3.698;2022-12-29T10:37:08;18.70;99.90
70548;DHT22;58099;43.406;3.698;2022-12-29T10:39:45;18.70;99.90
70548;DHT22;58099;43.406;3.698;2022-12-29T10:42:19;18.80;99.90
70548;DHT22;58099;43.406;3.698;2022-12-29T10:44:46;18.40;99.90
70548;DHT22;58099;43.406;3.698;2022-12-29T10:47:16;18.00;99.90
70548;DHT22;58099;43.406;3.698;2022-12-29T10:49:45;18.20;99.90
70548;DHT22;58099;43.406;3.698;2022-12-29T10:52:14;18.50;99.90
70548;DHT22;58099;43.406;3.698;2022-12-29T10:57:36;18.30;99.90
70548;DHT22;58099;43.406;3.698;2022-12-29T11:00:15;18.20;99.90
70548;DHT22;58099;43.406;3.698;2022-12-29T11:03:09;18.40;99.90
70548;DHT22;58099;43.406;3.698;2022-12-29T11:05:40;18.60;99.90
70548;DHT22;58099;43.406;3.698;2022-12-29T11:08:20;19.00;99.90
70548;DHT22;58099;43.406;3.698;2022-12-29T11:11:00;18.90;99.90
70548;DHT22;58099;43.406;3.698;2022-12-29T11:13:34;18.80;99.90
70548;DHT22;58099;43.406;3.698;2022-12-29T11:16:00;19.00;99.90
70548;DHT22;58099;43.406;3.698;2022-12-29T11:18:36;19.30;99.90
70548;DHT22;58099;43.406;3.698;2022-12-29T11:21:25;19.80;99.90
70548;DHT22;58099;43.406;3.698;2022-12-29T11:24:05;19.60;99.90
70548;DHT22;58099;43.406;3.698;2022-12-29T11:26:32;19.90;99.90
70548;DHT22;58099;43.406;3.698;2022-12-29T11:31:43;21.40;99.90
70548;DHT22;58099;43.406;3.698;2022-12-29T11:34:26;21.30;98.90
70548;DHT22;58099;43.406;3.698;2022-12-29T11:37:05;20.50;98.30
70548;DHT22;58099;43.406;3.698;2022-12-29T11:39:43;19.90;99.90
70548;DHT22;58099;43.406;3.698;2022-12-29T11:42:35;19.40;99.70
70548;DHT22;58099;43.406;3.698;2022-12-29T11:45:27;19.20;99.90
70548;DHT22;58099;43.406;3.698;2022-12-29T11:47:54;19.20;99.90
70548;DHT22;58099;43.406;3.698;2022-12-29T11:50:30;18.80;99.90
70548;DHT22;58099;43.406;3.698;2022-12-29T11:53:14;18.70;99.90
70548;DHT22;58099;43.406;3.698;2022-12-29T11:56:00;18.70;99.90
70548;DHT22;58099;43.406;3.698;2022-12-29T11:58:31;18.50;99.90
70548;DHT22;58099;43.406;3.698;2022-12-29T12:03:30;17.70;99.90
70548;DHT22;58099;43.406;3.698;2022-12-29T12:06:00;17.60;99.90
70548;DHT22;58099;43.406;3.698;2022-12-29T12:08:47;17.60;99.90
70548;DHT22;58099;43.406;3.698;2022-12-29T12:11:33;17.70;99.90
70548;DHT22;58099;43.406;3.698;2022-12-29T12:14:23;17.80;99.90
70548;DHT22;58099;43.406;3.698;2022-12-29T12:16:55;18.10;99.90
70548;DHT22;58099;43.406;3.698;2022-12-29T12:19:39;17.90;99.90
70548;DHT22;58099;43.406;3.698;2022-12-29T12:25:00;18.50;99.90
70548;DHT22;58099;43.406;3.698;2022-12-29T12:30:23;18.20;99.90
70548;DHT22;58099;43.406;3.698;2022-12-29T12:32:58;18.10;99.90
70548;DHT22;58099;43.406;3.698;2022-12-29T12:41:13;17.90;99.90
70548;DHT22;58099;43.406;3.698;2022-12-29T12:44:01;17.90;99.90
70548;DHT22;58099;43.406;3.698;2022-12-29T12:55:10;18.30;99.90
70548;DHT22;58099;43.406;3.698;2022-12-29T13:00:24;18.40;99.90
70548;DHT22;58099;43.406;3.698;2022-12-29T13:06:33;18.70;99.90
70548;DHT22;58099;43.406;3.698;2022-12-29T13:11:54;18.40;99.90
70548;DHT22;58099;43.406;3.698;2022-12-29T13:20:48;18.40;99.90
70548;DHT22;58099;43.406;3.698;2022-12-29T13:23:37;18.30;99.90
70548;DHT22;58099;43.406;3.698;2022-12-29T13:31:44;17.40;99.90
70548;DHT22;58099;43.406;3.698;2022-12-29T13:37:21;17.10;99.90
70548;DHT22;58099;43.406;3.698;2022-12-29T13:40:01;17.00;99.90
70548;DHT22;58099;43.406;3.698;2022-12-29T13:42:29;16.90;99.90
70548;DHT22;58099;43.406;3.698;2022-12-29T13:45:04;16.70;99.90
70548;DHT22;58099;43.406;3.698;2022-12-29T13:47:37;16.50;99.90
70548;DHT22;58099;43.406;3.698;2022-12-29T13:50:12;16.30;99.90
70548;DHT22;58099;43.406;3.698;2022-12-29T14:06:25;17.10;99.90
70548;DHT22;58099;43.406;3.698;2022-12-29T14:11:40;17.00;99.90
70548;DHT22;58099;43.406;3.698;2022-12-29T14:16:40;16.70;99.90
70548;DHT22;58099;43.406;3.698;2022-12-29T14:19:29;16.80;99.90
70548;DHT22;58099;43.406;3.698;2022-12-29T14:22:02;16.80;99.90
70548;DHT22;58099;43.406;3.698;2022-12-29T14:34:48;16.80;99.90
70548;DHT22;58099;43.406;3.698;2022-12-29T14:37:40;16.70;99.90
70548;DHT22;58099;43.406;3.698;2022-12-29T14:40:17;16.70;99.90
70548;DHT22;58099;43.406;3.698;2022-12-29T14:42:47;16.80;99.90
70548;DHT22;58099;43.406;3.698;2022-12-29T14:47:46;17.00;99.90
70548;DHT22;58099;43.406;3.698;2022-12-29T14:50:21;17.10;99.90
70548;DHT22;58099;43.406;3.698;2022-12-29T14:52:59;17.00;99.90
70548;DHT22;58099;43.406;3.698;2022-12-29T14:55:47;16.90;99.90
70548;DHT22;58099;43.406;3.698;2022-12-29T14:58:32;16.70;99.90
70548;DHT22;58099;43.406;3.698;2022-12-29T15:01:05;16.70;99.90
70548;DHT22;58099;43.406;3.698;2022-12-29T15:03:47;16.60;99.90
70548;DHT22;58099;43.406;3.698;2022-12-29T15:06:16;16.60;99.90
70548;DHT22;58099;43.406;3.698;2022-12-29T15:11:42;16.30;99.90
70548;DHT22;58099;43.406;3.698;2022-12-29T15:14:32;16.40;99.90
70548;DHT22;58099;43.406;3.698;2022-12-29T15:16:58;16.40;99.90
70548;DHT22;58099;43.406;3.698;2022-12-29T15:19:26;16.30;99.90
70548;DHT22;58099;43.406;3.698;2022-12-29T15:21:53;16.30;99.90
70548;DHT22;58099;43.406;3.698;2022-12-29T15:24:19;16.30;99.90
70548;DHT22;58099;43.406;3.698;2022-12-29T15:26:49;16.20;99.90
70548;DHT22;58099;43.406;3.698;2022-12-29T15:29:37;16.20;99.90
70548;DHT22;58099;43.406;3.698;2022-12-29T15:32:17;16.10;99.90
70548;DHT22;58099;43.406;3.698;2022-12-29T15:34:45;15.90;99.90
70548;DHT22;58099;43.406;3.698;2022-12-29T15:37:32;15.90;99.90
70548;DHT22;58099;43.406;3.698;2022-12-29T15:39:58;15.70;99.90
70548;DHT22;58099;43.406;3.698;2022-12-29T15:45:27;15.60;99.90
70548;DHT22;58099;43.406;3.698;2022-12-29T15:47:56;15.60;99.90
70548;DHT22;58099;43.406;3.698;2022-12-29T15:50:30;15.50;99.90
70548;DHT22;58099;43.406;3.698;2022-12-29T15:52:57;15.40;99.90
70548;DHT22;58099;43.406;3.698;2022-12-29T15:55:34;15.40;99.90
70548;DHT22;58099;43.406;3.698;2022-12-29T15:58:02;15.40;99.90
70548;DHT22;58099;43.406;3.698;2022-12-29T16:00:33;15.30;99.90
70548;DHT22;58099;43.406;3.698;2022-12-29T16:03:01;15.30;99.90
70548;DHT22;58099;43.406;3.698;2022-12-29T16:05:36;15.20;99.90
70548;DHT22;58099;43.406;3.698;2022-12-29T16:08:03;15.30;99.90
70548;DHT22;58099;43.406;3.698;2022-12-29T16:10:36;15.20;99.90
70548;DHT22;58099;43.406;3.698;2022-12-29T16:13:30;15.20;99.90
70548;DHT22;58099;43.406;3.698;2022-12-29T16:16:01;15.20;99.90
70548;DHT22;58099;43.406;3.698;2022-12-29T16:18:30;15.20;99.90
70548;DHT22;58099;43.406;3.698;2022-12-29T16:20:59;15.20;99.90
70548;DHT22;58099;43.406;3.698;2022-12-29T16:23:27;15.30;99.90
70548;DHT22;58099;43.406;3.698;2022-12-29T16:25:55;15.40;99.90
70548;DHT22;58099;43.406;3.698;2022-12-29T16:28:25;15.40;99.90
70548;DHT22;58099;43.406;3.698;2022-12-29T16:31:23;15.40;99.90
70548;DHT22;58099;43.406;3.698;2022-12-29T16:33:54;15.40;99.90
70548;DHT22;58099;43.406;3.698;2022-12-29T16:36:28;15.40;99.90
70548;DHT22;58099;43.406;3.698;2022-12-29T16:41:57;15.20;99.90
70548;DHT22;58099;43.406;3.698;2022-12-29T16:44:26;15.20;99.90
70548;DHT22;58099;43.406;3.698;2022-12-29T16:49:27;15.00;99.90
70548;DHT22;58099;43.406;3.698;2022-12-29T16:51:54;15.00;99.90
70548;DHT22;58099;43.406;3.698;2022-12-29T16:54:47;15.00;99.90
70548;DHT22;58099;43.406;3.698;2022-12-29T16:57:09;15.00;99.90
70548;DHT22;58099;43.406;3.698;2022-12-29T16:59:38;15.00;99.90
70548;DHT22;58099;43.406;3.698;2022-12-29T17:02:14;15.00;99.90
70548;DHT22;58099;43.406;3.698;2022-12-29T17:04:41;14.90;99.90
70548;DHT22;58099;43.406;3.698;2022-12-29T17:07:16;15.00;99.90
70548;DHT22;58099;43.406;3.698;2022-12-29T17:09:42;14.90;99.90
70548;DHT22;58099;43.406;3.698;2022-12-29T17:12:17;14.90;99.90
70548;DHT22;58099;43.406;3.698;2022-12-29T17:17:34;14.80;99.90
70548;DHT22;58099;43.406;3.698;2022-12-29T17:20:14;14.80;99.90
70548;DHT22;58099;43.406;3.698;2022-12-29T17:22:40;14.80;99.90
70548;DHT22;58099;43.406;3.698;2022-12-29T17:25:10;14.80;99.90
70548;DHT22;58099;43.406;3.698;2022-12-29T17:27:40;14.80;99.90
70548;DHT22;58099;43.406;3.698;2022-12-29T17:30:16;14.80;99.90
70548;DHT22;58099;43.406;3.698;2022-12-29T17:32:48;14.70;99.90
70548;DHT22;58099;43.406;3.698;2022-12-29T17:35:18;14.70;99.90
70548;DHT22;58099;43.406;3.698;2022-12-29T17:37:44;14.70;99.90
70548;DHT22;58099;43.406;3.698;2022-12-29T17:40:14;14.60;99.90
70548;DHT22;58099;43.406;3.698;2022-12-29T17:42:45;14.50;99.90
70548;DHT22;58099;43.406;3.698;2022-12-29T17:45:16;14.40;99.90
70548;DHT22;58099;43.406;3.698;2022-12-29T17:47:43;14.50;99.90
70548;DHT22;58099;43.406;3.698;2022-12-29T17:50:13;14.50;99.90
70548;DHT22;58099;43.406;3.698;2022-12-29T17:52:39;14.60;99.90
70548;DHT22;58099;43.406;3.698;2022-12-29T17:55:05;14.60;99.90
70548;DHT22;58099;43.406;3.698;2022-12-29T17:57:31;14.70;99.90
70548;DHT22;58099;43.406;3.698;2022-12-29T17:59:57;14.60;99.90
70548;DHT22;58099;43.406;3.698;2022-12-29T18:02:30;14.70;99.90
70548;DHT22;58099;43.406;3.698;2022-12-29T18:04:57;14.70;99.90
70548;DHT22;58099;43.406;3.698;2022-12-29T18:07:30;14.60;99.90
70548;DHT22;58099;43.406;3.698;2022-12-29T18:09:56;14.60;99.90
70548;DHT22;58099;43.406;3.698;2022-12-29T18:14:50;14.70;99.90
70548;DHT22;58099;43.406;3.698;2022-12-29T18:17:16;14.90;99.90